sensor_id;sensor_type;location;lat;lon;timestamp;temperature;humidity
10089;DHT22;51898;49.864;8.550;2023-08-01T00:00:29;17.60;96.50
10089;DHT22;51898;49.864;8.550;2023-08-01T00:03:31;17.60;96.50
10089;DHT22;51898;49.864;8.550;2023-08-01T00:06:33;17.60;96.40
10089;DHT22;51898;49.864;8.550;2023-08-01T00:09:35;17.50;96.60
10089;DHT22;51898;49.864;8.550;2023-08-01T00:12:37;17.50;96.70
10089;DHT22;51898;49.864;8.550;2023-08-01T00:15:38;17.50;96.60
10089;DHT22;51898;49.864;8.550;2023-08-01T00:18:44;17.50;96.60
10089;DHT22;51898;49.864;8.550;2023-08-01T00:21:45;17.50;96.80
10089;DHT22;51898;49.864;8.550;2023-08-01T00:24:48;17.40;96.90
10089;DHT22;51898;49.864;8.550;2023-08-01T00:27:50;17.50;97.00
10089;DHT22;51898;49.864;8.550;2023-08-01T00:31:02;17.50;97.10
10089;DHT22;51898;49.864;8.550;2023-08-01T00:34:04;17.40;97.50
10089;DHT22;51898;49.864;8.550;2023-08-01T00:37:06;17.40;97.20
10089;DHT22;51898;49.864;8.550;2023-08-01T00:40:08;17.40;97.30
10089;DHT22;51898;49.864;8.550;2023-08-01T00:43:10;17.40;97.20
10089;DHT22;51898;49.864;8.550;2023-08-01T00:46:11;17.40;97.30
10089;DHT22;51898;49.864;8.550;2023-08-01T00:49:14;17.40;97.40
10089;DHT22;51898;49.864;8.550;2023-08-01T00:52:16;17.40;97.40
10089;DHT22;51898;49.864;8.550;2023-08-01T00:55:18;17.40;97.60
10089;DHT22;51898;49.864;8.550;2023-08-01T00:58:20;17.40;97.70
10089;DHT22;51898;49.864;8.550;2023-08-01T01:01:22;17.40;97.80
10089;DHT22;51898;49.864;8.550;2023-08-01T01:04:25;17.30;97.90
10089;DHT22;51898;49.864;8.550;2023-08-01T01:07:28;17.30;98.10
10089;DHT22;51898;49.864;8.550;2023-08-01T01:10:30;17.30;98.00
10089;DHT22;51898;49.864;8.550;2023-08-01T01:13:33;17.30;98.20
10089;DHT22;51898;49.864;8.550;2023-08-01T01:16:34;17.30;98.20
10089;DHT22;51898;49.864;8.550;2023-08-01T01:19:36;17.30;98.30
10089;DHT22;51898;49.864;8.550;2023-08-01T01:22:39;17.30;98.10
10089;DHT22;51898;49.864;8.550;2023-08-01T01:25:43;17.30;98.20
10089;DHT22;51898;49.864;8.550;2023-08-01T01:28:50;17.30;98.30
10089;DHT22;51898;49.864;8.550;2023-08-01T01:31:52;17.30;98.40
10089;DHT22;51898;49.864;8.550;2023-08-01T01:34:54;17.30;98.40
10089;DHT22;51898;49.864;8.550;2023-08-01T01:37:56;17.20;98.70
10089;DHT22;51898;49.864;8.550;2023-08-01T01:41:00;17.20;98.90
10089;DHT22;51898;49.864;8.550;2023-08-01T01:44:01;17.20;99.00
10089;DHT22;51898;49.864;8.550;2023-08-01T01:47:03;17.20;99.00
10089;DHT22;51898;49.864;8.550;2023-08-01T01:50:05;17.20;99.10
10089;DHT22;51898;49.864;8.550;2023-08-01T01:53:07;17.20;99.10
10089;DHT22;51898;49.864;8.550;2023-08-01T01:56:09;17.20;99.00
10089;DHT22;51898;49.864;8.550;2023-08-01T01:59:11;17.20;99.00
10089;DHT22;51898;49.864;8.550;2023-08-01T02:02:12;17.20;99.00
10089;DHT22;51898;49.864;8.550;2023-08-01T02:05:14;17.20;99.20
10089;DHT22;51898;49.864;8.550;2023-08-01T02:08:16;17.20;99.30
10089;DHT22;51898;49.864;8.550;2023-08-01T02:11:18;17.20;99.20
10089;DHT22;51898;49.864;8.550;2023-08-01T02:14:19;17.20;99.20
10089;DHT22;51898;49.864;8.550;2023-08-01T02:17:21;17.20;99.40
10089;DHT22;51898;49.864;8.550;2023-08-01T02:20:23;17.20;99.40
10089;DHT22;51898;49.864;8.550;2023-08-01T02:23:25;17.20;99.10
10089;DHT22;51898;49.864;8.550;2023-08-01T02:26:26;17.20;99.20
10089;DHT22;51898;49.864;8.550;2023-08-01T02:29:28;17.20;99.20
10089;DHT22;51898;49.864;8.550;2023-08-01T02:32:30;17.30;99.30
10089;DHT22;51898;49.864;8.550;2023-08-01T02:35:32;17.20;99.30
10089;DHT22;51898;49.864;8.550;2023-08-01T02:38:33;17.20;99.20
10089;DHT22;51898;49.864;8.550;2023-08-01T02:41:35;17.20;99.20
10089;DHT22;51898;49.864;8.550;2023-08-01T02:44:37;17.30;99.20
10089;DHT22;51898;49.864;8.550;2023-08-01T02:47:38;17.30;99.00
10089;DHT22;51898;49.864;8.550;2023-08-01T02:50:40;17.30;98.90
10089;DHT22;51898;49.864;8.550;2023-08-01T02:53:42;17.30;98.80
10089;DHT22;51898;49.864;8.550;2023-08-01T02:56:43;17.30;98.80
10089;DHT22;51898;49.864;8.550;2023-08-01T02:59:45;17.30;98.90
10089;DHT22;51898;49.864;8.550;2023-08-01T03:02:47;17.30;98.70
10089;DHT22;51898;49.864;8.550;2023-08-01T03:05:49;17.40;98.70
10089;DHT22;51898;49.864;8.550;2023-08-01T03:08:50;17.40;98.50
10089;DHT22;51898;49.864;8.550;2023-08-01T03:11:52;17.40;98.50
10089;DHT22;51898;49.864;8.550;2023-08-01T03:14:54;17.40;98.30
10089;DHT22;51898;49.864;8.550;2023-08-01T03:17:56;17.40;98.30
10089;DHT22;51898;49.864;8.550;2023-08-01T03:20:58;17.40;98.40
10089;DHT22;51898;49.864;8.550;2023-08-01T03:24:00;17.50;98.10
10089;DHT22;51898;49.864;8.550;2023-08-01T03:27:02;17.50;97.90
10089;DHT22;51898;49.864;8.550;2023-08-01T03:30:05;17.50;97.80
10089;DHT22;51898;49.864;8.550;2023-08-01T03:33:10;17.50;97.80
10089;DHT22;51898;49.864;8.550;2023-08-01T03:36:12;17.60;97.80
10089;DHT22;51898;49.864;8.550;2023-08-01T03:39:14;17.50;98.20
10089;DHT22;51898;49.864;8.550;2023-08-01T03:42:16;17.50;98.30
10089;DHT22;51898;49.864;8.550;2023-08-01T03:45:17;17.50;98.30
10089;DHT22;51898;49.864;8.550;2023-08-01T03:48:19;17.50;98.40
10089;DHT22;51898;49.864;8.550;2023-08-01T03:51:21;17.50;98.30
10089;DHT22;51898;49.864;8.550;2023-08-01T03:54:23;17.50;98.40
10089;DHT22;51898;49.864;8.550;2023-08-01T03:57:25;17.40;98.70
10089;DHT22;51898;49.864;8.550;2023-08-01T04:00:27;17.50;98.60
10089;DHT22;51898;49.864;8.550;2023-08-01T04:03:33;17.50;98.60
10089;DHT22;51898;49.864;8.550;2023-08-01T04:06:35;17.50;98.50
10089;DHT22;51898;49.864;8.550;2023-08-01T04:09:37;17.50;98.30
10089;DHT22;51898;49.864;8.550;2023-08-01T04:12:40;17.50;98.30
10089;DHT22;51898;49.864;8.550;2023-08-01T04:15:43;17.50;98.40
10089;DHT22;51898;49.864;8.550;2023-08-01T04:18:45;17.50;98.40
10089;DHT22;51898;49.864;8.550;2023-08-01T04:21:47;17.50;98.40
10089;DHT22;51898;49.864;8.550;2023-08-01T04:24:48;17.60;98.30
10089;DHT22;51898;49.864;8.550;2023-08-01T04:27:50;17.50;98.30
10089;DHT22;51898;49.864;8.550;2023-08-01T04:30:52;17.50;98.70
10089;DHT22;51898;49.864;8.550;2023-08-01T04:33:54;17.50;98.80
10089;DHT22;51898;49.864;8.550;2023-08-01T04:36:55;17.50;98.70
10089;DHT22;51898;49.864;8.550;2023-08-01T04:39:57;17.50;98.80
10089;DHT22;51898;49.864;8.550;2023-08-01T04:43:00;17.50;98.90
10089;DHT22;51898;49.864;8.550;2023-08-01T04:46:01;17.50;98.90
10089;DHT22;51898;49.864;8.550;2023-08-01T04:49:03;17.40;99.20
10089;DHT22;51898;49.864;8.550;2023-08-01T04:52:05;17.40;99.30
10089;DHT22;51898;49.864;8.550;2023-08-01T04:55:09;17.30;99.70
10089;DHT22;51898;49.864;8.550;2023-08-01T04:58:10;17.30;99.70
10089;DHT22;51898;49.864;8.550;2023-08-01T05:01:12;17.30;99.70
10089;DHT22;51898;49.864;8.550;2023-08-01T05:04:14;17.30;99.90
10089;DHT22;51898;49.864;8.550;2023-08-01T05:07:16;17.30;99.80
10089;DHT22;51898;49.864;8.550;2023-08-01T05:10:18;17.30;99.80
10089;DHT22;51898;49.864;8.550;2023-08-01T05:13:19;17.30;99.70
10089;DHT22;51898;49.864;8.550;2023-08-01T05:16:21;17.30;99.20
10089;DHT22;51898;49.864;8.550;2023-08-01T05:19:23;17.30;99.00
10089;DHT22;51898;49.864;8.550;2023-08-01T05:22:24;17.30;98.90
10089;DHT22;51898;49.864;8.550;2023-08-01T05:25:26;17.20;98.40
10089;DHT22;51898;49.864;8.550;2023-08-01T05:28:28;17.20;97.70
10089;DHT22;51898;49.864;8.550;2023-08-01T05:31:29;17.10;96.00
10089;DHT22;51898;49.864;8.550;2023-08-01T05:34:33;17.00;95.80
10089;DHT22;51898;49.864;8.550;2023-08-01T05:37:34;16.90;95.30
10089;DHT22;51898;49.864;8.550;2023-08-01T05:40:36;16.90;95.40
10089;DHT22;51898;49.864;8.550;2023-08-01T05:43:38;16.90;95.70
10089;DHT22;51898;49.864;8.550;2023-08-01T05:46:39;16.90;95.60
10089;DHT22;51898;49.864;8.550;2023-08-01T05:49:42;16.90;95.30
10089;DHT22;51898;49.864;8.550;2023-08-01T05:52:43;16.90;94.80
10089;DHT22;51898;49.864;8.550;2023-08-01T05:55:45;16.90;94.70
10089;DHT22;51898;49.864;8.550;2023-08-01T05:58:47;17.00;94.50
10089;DHT22;51898;49.864;8.550;2023-08-01T06:01:48;17.00;94.50
10089;DHT22;51898;49.864;8.550;2023-08-01T06:04:50;17.00;94.90
10089;DHT22;51898;49.864;8.550;2023-08-01T06:07:52;17.00;95.00
10089;DHT22;51898;49.864;8.550;2023-08-01T06:10:54;17.10;95.20
10089;DHT22;51898;49.864;8.550;2023-08-01T06:13:55;17.10;94.90
10089;DHT22;51898;49.864;8.550;2023-08-01T06:16:57;17.10;94.60
10089;DHT22;51898;49.864;8.550;2023-08-01T06:19:59;17.10;94.70
10089;DHT22;51898;49.864;8.550;2023-08-01T06:23:00;17.10;95.30
10089;DHT22;51898;49.864;8.550;2023-08-01T06:26:02;17.10;95.60
10089;DHT22;51898;49.864;8.550;2023-08-01T06:29:04;17.10;95.70
10089;DHT22;51898;49.864;8.550;2023-08-01T06:32:06;17.10;96.20
10089;DHT22;51898;49.864;8.550;2023-08-01T06:35:08;17.10;96.60
10089;DHT22;51898;49.864;8.550;2023-08-01T06:38:10;17.10;96.60
10089;DHT22;51898;49.864;8.550;2023-08-01T06:41:11;17.10;96.70
10089;DHT22;51898;49.864;8.550;2023-08-01T06:44:13;17.20;96.40
10089;DHT22;51898;49.864;8.550;2023-08-01T06:47:15;17.20;96.20
10089;DHT22;51898;49.864;8.550;2023-08-01T06:50:16;17.30;96.20
10089;DHT22;51898;49.864;8.550;2023-08-01T06:53:19;17.30;96.40
10089;DHT22;51898;49.864;8.550;2023-08-01T06:56:20;17.40;96.00
10089;DHT22;51898;49.864;8.550;2023-08-01T06:59:23;17.30;95.90
10089;DHT22;51898;49.864;8.550;2023-08-01T07:02:25;17.30;95.70
10089;DHT22;51898;49.864;8.550;2023-08-01T07:05:27;17.30;95.90
10089;DHT22;51898;49.864;8.550;2023-08-01T07:08:29;17.30;96.20
10089;DHT22;51898;49.864;8.550;2023-08-01T07:11:30;17.30;96.50
10089;DHT22;51898;49.864;8.550;2023-08-01T07:14:32;17.30;96.90
10089;DHT22;51898;49.864;8.550;2023-08-01T07:17:34;17.20;97.60
10089;DHT22;51898;49.864;8.550;2023-08-01T07:20:35;17.20;97.70
10089;DHT22;51898;49.864;8.550;2023-08-01T07:23:37;17.30;97.90
10089;DHT22;51898;49.864;8.550;2023-08-01T07:26:39;17.40;97.80
10089;DHT22;51898;49.864;8.550;2023-08-01T07:29:41;17.40;96.80
10089;DHT22;51898;49.864;8.550;2023-08-01T07:32:42;17.30;95.30
10089;DHT22;51898;49.864;8.550;2023-08-01T07:35:44;17.30;94.90
10089;DHT22;51898;49.864;8.550;2023-08-01T07:38:46;17.40;94.60
10089;DHT22;51898;49.864;8.550;2023-08-01T07:41:48;17.50;95.00
10089;DHT22;51898;49.864;8.550;2023-08-01T07:44:49;17.60;94.90
10089;DHT22;51898;49.864;8.550;2023-08-01T07:47:51;17.80;94.90
10089;DHT22;51898;49.864;8.550;2023-08-01T07:50:53;17.90;94.40
10089;DHT22;51898;49.864;8.550;2023-08-01T07:53:55;17.90;94.00
10089;DHT22;51898;49.864;8.550;2023-08-01T07:56:56;18.00;94.10
10089;DHT22;51898;49.864;8.550;2023-08-01T07:59:58;18.10;93.90
10089;DHT22;51898;49.864;8.550;2023-08-01T08:03:00;18.20;94.00
10089;DHT22;51898;49.864;8.550;2023-08-01T08:06:02;18.30;93.80
10089;DHT22;51898;49.864;8.550;2023-08-01T08:09:05;18.40;94.00
10089;DHT22;51898;49.864;8.550;2023-08-01T08:12:07;18.50;94.10
10089;DHT22;51898;49.864;8.550;2023-08-01T08:15:09;18.70;93.90
10089;DHT22;51898;49.864;8.550;2023-08-01T08:18:11;18.80;93.40
10089;DHT22;51898;49.864;8.550;2023-08-01T08:21:13;19.00;93.10
10089;DHT22;51898;49.864;8.550;2023-08-01T08:24:15;19.20;92.80
10089;DHT22;51898;49.864;8.550;2023-08-01T08:27:17;19.40;91.60
10089;DHT22;51898;49.864;8.550;2023-08-01T08:30:18;19.50;90.90
10089;DHT22;51898;49.864;8.550;2023-08-01T08:33:21;19.70;90.40
10089;DHT22;51898;49.864;8.550;2023-08-01T08:36:23;19.90;90.40
10089;DHT22;51898;49.864;8.550;2023-08-01T08:39:24;20.10;89.00
10089;DHT22;51898;49.864;8.550;2023-08-01T08:42:26;20.30;87.40
10089;DHT22;51898;49.864;8.550;2023-08-01T08:45:29;20.60;87.20
10089;DHT22;51898;49.864;8.550;2023-08-01T08:48:33;20.80;84.20
10089;DHT22;51898;49.864;8.550;2023-08-01T08:51:37;21.00;84.00
10089;DHT22;51898;49.864;8.550;2023-08-01T08:54:40;21.00;82.10
10089;DHT22;51898;49.864;8.550;2023-08-01T08:57:41;21.00;82.30
10089;DHT22;51898;49.864;8.550;2023-08-01T09:00:46;21.10;81.10
10089;DHT22;51898;49.864;8.550;2023-08-01T09:03:48;20.90;79.80
10089;DHT22;51898;49.864;8.550;2023-08-01T09:06:51;20.80;80.80
10089;DHT22;51898;49.864;8.550;2023-08-01T09:09:56;20.70;79.00
10089;DHT22;51898;49.864;8.550;2023-08-01T09:12:58;20.70;78.70
10089;DHT22;51898;49.864;8.550;2023-08-01T09:16:02;20.60;80.70
10089;DHT22;51898;49.864;8.550;2023-08-01T09:19:06;20.70;79.10
10089;DHT22;51898;49.864;8.550;2023-08-01T09:22:14;20.90;77.30
10089;DHT22;51898;49.864;8.550;2023-08-01T09:25:16;21.20;73.50
10089;DHT22;51898;49.864;8.550;2023-08-01T09:28:22;21.50;70.90
10089;DHT22;51898;49.864;8.550;2023-08-01T09:31:33;21.70;72.60
10089;DHT22;51898;49.864;8.550;2023-08-01T09:34:35;21.90;70.90
10089;DHT22;51898;49.864;8.550;2023-08-01T09:37:41;21.90;67.90
10089;DHT22;51898;49.864;8.550;2023-08-01T09:40:44;22.00;70.50
10089;DHT22;51898;49.864;8.550;2023-08-01T09:43:46;22.50;69.50
10089;DHT22;51898;49.864;8.550;2023-08-01T09:47:03;22.80;65.70
10089;DHT22;51898;49.864;8.550;2023-08-01T09:50:05;23.00;64.90
10089;DHT22;51898;49.864;8.550;2023-08-01T09:53:08;22.90;62.90
10089;DHT22;51898;49.864;8.550;2023-08-01T09:56:09;22.40;63.30
10089;DHT22;51898;49.864;8.550;2023-08-01T09:59:13;21.90;65.40
10089;DHT22;51898;49.864;8.550;2023-08-01T10:02:20;21.80;67.40
10089;DHT22;51898;49.864;8.550;2023-08-01T10:05:23;21.90;66.80
10089;DHT22;51898;49.864;8.550;2023-08-01T10:08:26;22.10;65.30
10089;DHT22;51898;49.864;8.550;2023-08-01T10:11:33;22.40;65.70
10089;DHT22;51898;49.864;8.550;2023-08-01T10:14:35;22.60;60.60
10089;DHT22;51898;49.864;8.550;2023-08-01T10:17:37;22.60;63.20
10089;DHT22;51898;49.864;8.550;2023-08-01T10:20:39;22.60;60.50
10089;DHT22;51898;49.864;8.550;2023-08-01T10:23:42;22.80;60.90
10089;DHT22;51898;49.864;8.550;2023-08-01T10:26:45;23.00;59.60
10089;DHT22;51898;49.864;8.550;2023-08-01T10:30:00;23.20;59.70
10089;DHT22;51898;49.864;8.550;2023-08-01T10:33:02;22.90;58.40
10089;DHT22;51898;49.864;8.550;2023-08-01T10:36:17;22.50;59.50
10089;DHT22;51898;49.864;8.550;2023-08-01T10:39:23;22.30;59.70
10089;DHT22;51898;49.864;8.550;2023-08-01T10:42:25;22.20;62.00
10089;DHT22;51898;49.864;8.550;2023-08-01T10:45:27;22.40;58.40
10089;DHT22;51898;49.864;8.550;2023-08-01T10:48:31;22.60;58.70
10089;DHT22;51898;49.864;8.550;2023-08-01T10:51:36;22.70;58.30
10089;DHT22;51898;49.864;8.550;2023-08-01T10:54:39;22.80;57.80
10089;DHT22;51898;49.864;8.550;2023-08-01T10:57:49;22.90;57.80
10089;DHT22;51898;49.864;8.550;2023-08-01T11:00:57;23.20;59.70
10089;DHT22;51898;49.864;8.550;2023-08-01T11:04:00;23.40;56.10
10089;DHT22;51898;49.864;8.550;2023-08-01T11:07:03;23.40;56.70
10089;DHT22;51898;49.864;8.550;2023-08-01T11:10:10;23.40;56.50
10089;DHT22;51898;49.864;8.550;2023-08-01T11:13:12;23.50;55.80
10089;DHT22;51898;49.864;8.550;2023-08-01T11:16:14;23.70;51.90
10089;DHT22;51898;49.864;8.550;2023-08-01T11:19:24;23.80;52.50
10089;DHT22;51898;49.864;8.550;2023-08-01T11:22:26;23.40;53.00
10089;DHT22;51898;49.864;8.550;2023-08-01T11:25:38;23.30;55.20
10089;DHT22;51898;49.864;8.550;2023-08-01T11:28:40;23.50;56.10
10089;DHT22;51898;49.864;8.550;2023-08-01T11:31:58;23.80;55.00
10089;DHT22;51898;49.864;8.550;2023-08-01T11:35:01;23.60;54.00
10089;DHT22;51898;49.864;8.550;2023-08-01T11:38:03;23.70;54.70
10089;DHT22;51898;49.864;8.550;2023-08-01T11:41:05;23.80;53.80
10089;DHT22;51898;49.864;8.550;2023-08-01T11:44:06;23.70;54.40
10089;DHT22;51898;49.864;8.550;2023-08-01T11:47:13;23.90;55.80
10089;DHT22;51898;49.864;8.550;2023-08-01T11:50:21;24.00;53.20
10089;DHT22;51898;49.864;8.550;2023-08-01T11:53:24;23.90;51.00
10089;DHT22;51898;49.864;8.550;2023-08-01T11:56:26;23.70;51.30
10089;DHT22;51898;49.864;8.550;2023-08-01T11:59:28;23.90;53.30
10089;DHT22;51898;49.864;8.550;2023-08-01T12:02:30;24.20;54.90
10089;DHT22;51898;49.864;8.550;2023-08-01T12:05:32;24.10;52.90
10089;DHT22;51898;49.864;8.550;2023-08-01T12:08:35;24.00;52.90
10089;DHT22;51898;49.864;8.550;2023-08-01T12:11:38;23.80;52.70
10089;DHT22;51898;49.864;8.550;2023-08-01T12:14:40;23.70;51.10
10089;DHT22;51898;49.864;8.550;2023-08-01T12:17:42;23.50;52.40
10089;DHT22;51898;49.864;8.550;2023-08-01T12:20:44;23.50;53.00
10089;DHT22;51898;49.864;8.550;2023-08-01T12:23:46;23.70;52.10
10089;DHT22;51898;49.864;8.550;2023-08-01T12:26:48;23.90;52.70
10089;DHT22;51898;49.864;8.550;2023-08-01T12:29:50;24.10;52.10
10089;DHT22;51898;49.864;8.550;2023-08-01T12:32:51;24.10;53.10
10089;DHT22;51898;49.864;8.550;2023-08-01T12:35:54;24.10;49.60
10089;DHT22;51898;49.864;8.550;2023-08-01T12:38:56;24.20;47.70
10089;DHT22;51898;49.864;8.550;2023-08-01T12:41:57;24.00;48.10
10089;DHT22;51898;49.864;8.550;2023-08-01T12:45:00;23.80;48.80
10089;DHT22;51898;49.864;8.550;2023-08-01T12:48:01;23.70;49.10
10089;DHT22;51898;49.864;8.550;2023-08-01T12:51:03;24.00;50.80
10089;DHT22;51898;49.864;8.550;2023-08-01T12:54:05;24.00;49.10
10089;DHT22;51898;49.864;8.550;2023-08-01T12:57:07;24.20;50.50
10089;DHT22;51898;49.864;8.550;2023-08-01T13:00:09;24.40;51.00
10089;DHT22;51898;49.864;8.550;2023-08-01T13:03:12;24.60;50.00
10089;DHT22;51898;49.864;8.550;2023-08-01T13:06:14;24.30;51.20
10089;DHT22;51898;49.864;8.550;2023-08-01T13:09:16;24.20;49.80
10089;DHT22;51898;49.864;8.550;2023-08-01T13:12:18;24.10;49.50
10089;DHT22;51898;49.864;8.550;2023-08-01T13:15:20;23.80;51.40
10089;DHT22;51898;49.864;8.550;2023-08-01T13:18:21;23.60;52.20
10089;DHT22;51898;49.864;8.550;2023-08-01T13:21:23;23.90;52.30
10089;DHT22;51898;49.864;8.550;2023-08-01T13:24:25;24.20;53.20
10089;DHT22;51898;49.864;8.550;2023-08-01T13:27:27;24.50;50.90
10089;DHT22;51898;49.864;8.550;2023-08-01T13:30:28;24.30;49.40
10089;DHT22;51898;49.864;8.550;2023-08-01T13:33:30;24.20;51.90
10089;DHT22;51898;49.864;8.550;2023-08-01T13:36:32;24.60;51.80
10089;DHT22;51898;49.864;8.550;2023-08-01T13:39:33;24.90;51.20
10089;DHT22;51898;49.864;8.550;2023-08-01T13:42:35;25.00;50.50
10089;DHT22;51898;49.864;8.550;2023-08-01T13:45:37;25.10;51.30
10089;DHT22;51898;49.864;8.550;2023-08-01T13:48:39;25.30;51.70
10089;DHT22;51898;49.864;8.550;2023-08-01T13:51:40;25.20;50.40
10089;DHT22;51898;49.864;8.550;2023-08-01T13:54:42;25.00;52.10
10089;DHT22;51898;49.864;8.550;2023-08-01T13:57:44;24.90;53.00
10089;DHT22;51898;49.864;8.550;2023-08-01T14:00:45;24.90;54.50
10089;DHT22;51898;49.864;8.550;2023-08-01T14:03:47;24.70;54.10
10089;DHT22;51898;49.864;8.550;2023-08-01T14:06:49;24.40;54.20
10089;DHT22;51898;49.864;8.550;2023-08-01T14:09:51;23.70;54.60
10089;DHT22;51898;49.864;8.550;2023-08-01T14:12:53;22.80;61.90
10089;DHT22;51898;49.864;8.550;2023-08-01T14:15:54;21.90;66.80
10089;DHT22;51898;49.864;8.550;2023-08-01T14:18:58;21.10;68.60
10089;DHT22;51898;49.864;8.550;2023-08-01T14:21:59;20.80;70.60
10089;DHT22;51898;49.864;8.550;2023-08-01T14:25:01;20.50;72.60
10089;DHT22;51898;49.864;8.550;2023-08-01T14:28:03;20.50;73.80
10089;DHT22;51898;49.864;8.550;2023-08-01T14:31:05;20.60;75.70
10089;DHT22;51898;49.864;8.550;2023-08-01T14:34:07;20.60;75.60
10089;DHT22;51898;49.864;8.550;2023-08-01T14:37:08;20.40;76.90
10089;DHT22;51898;49.864;8.550;2023-08-01T14:40:10;20.10;76.80
10089;DHT22;51898;49.864;8.550;2023-08-01T14:43:12;19.90;78.50
10089;DHT22;51898;49.864;8.550;2023-08-01T14:46:14;19.70;79.20
10089;DHT22;51898;49.864;8.550;2023-08-01T14:49:16;19.50;80.00
10089;DHT22;51898;49.864;8.550;2023-08-01T14:52:17;19.50;82.20
10089;DHT22;51898;49.864;8.550;2023-08-01T14:55:26;19.60;82.40
10089;DHT22;51898;49.864;8.550;2023-08-01T14:58:27;19.80;82.80
10089;DHT22;51898;49.864;8.550;2023-08-01T15:01:29;20.20;80.50
10089;DHT22;51898;49.864;8.550;2023-08-01T15:04:32;20.50;78.30
10089;DHT22;51898;49.864;8.550;2023-08-01T15:07:34;20.70;78.20
10089;DHT22;51898;49.864;8.550;2023-08-01T15:10:40;21.00;77.90
10089;DHT22;51898;49.864;8.550;2023-08-01T15:13:42;21.20;78.60
10089;DHT22;51898;49.864;8.550;2023-08-01T15:16:44;21.40;77.90
10089;DHT22;51898;49.864;8.550;2023-08-01T15:19:45;21.90;76.10
10089;DHT22;51898;49.864;8.550;2023-08-01T15:22:48;22.20;71.50
10089;DHT22;51898;49.864;8.550;2023-08-01T15:25:57;22.10;72.10
10089;DHT22;51898;49.864;8.550;2023-08-01T15:28:59;22.20;73.40
10089;DHT22;51898;49.864;8.550;2023-08-01T15:32:01;22.20;72.00
10089;DHT22;51898;49.864;8.550;2023-08-01T15:35:03;21.90;71.80
10089;DHT22;51898;49.864;8.550;2023-08-01T15:38:05;21.30;71.10
10089;DHT22;51898;49.864;8.550;2023-08-01T15:41:10;19.70;75.30
10089;DHT22;51898;49.864;8.550;2023-08-01T15:44:11;18.60;79.50
10089;DHT22;51898;49.864;8.550;2023-08-01T15:47:13;18.20;81.80
10089;DHT22;51898;49.864;8.550;2023-08-01T15:50:15;18.10;85.40
10089;DHT22;51898;49.864;8.550;2023-08-01T15:53:16;18.10;86.20
10089;DHT22;51898;49.864;8.550;2023-08-01T15:56:18;18.20;86.70
10089;DHT22;51898;49.864;8.550;2023-08-01T15:59:20;18.40;84.50
10089;DHT22;51898;49.864;8.550;2023-08-01T16:02:22;18.40;86.00
10089;DHT22;51898;49.864;8.550;2023-08-01T16:05:23;18.60;85.30
10089;DHT22;51898;49.864;8.550;2023-08-01T16:08:25;18.70;85.10
10089;DHT22;51898;49.864;8.550;2023-08-01T16:11:30;19.20;87.10
10089;DHT22;51898;49.864;8.550;2023-08-01T16:14:32;20.40;83.50
10089;DHT22;51898;49.864;8.550;2023-08-01T16:17:42;21.40;80.40
10089;DHT22;51898;49.864;8.550;2023-08-01T16:20:44;22.20;75.20
10089;DHT22;51898;49.864;8.550;2023-08-01T16:23:46;22.60;72.80
10089;DHT22;51898;49.864;8.550;2023-08-01T16:26:47;22.70;68.90
10089;DHT22;51898;49.864;8.550;2023-08-01T16:29:49;22.90;69.80
10089;DHT22;51898;49.864;8.550;2023-08-01T16:32:51;23.00;66.60
10089;DHT22;51898;49.864;8.550;2023-08-01T16:35:53;22.80;65.10
10089;DHT22;51898;49.864;8.550;2023-08-01T16:38:55;22.70;65.50
10089;DHT22;51898;49.864;8.550;2023-08-01T16:41:56;22.60;66.80
10089;DHT22;51898;49.864;8.550;2023-08-01T16:45:01;22.40;67.90
10089;DHT22;51898;49.864;8.550;2023-08-01T16:48:03;22.00;67.90
10089;DHT22;51898;49.864;8.550;2023-08-01T16:51:05;21.60;67.80
10089;DHT22;51898;49.864;8.550;2023-08-01T16:54:06;21.20;69.70
10089;DHT22;51898;49.864;8.550;2023-08-01T16:57:08;20.90;70.50
10089;DHT22;51898;49.864;8.550;2023-08-01T17:00:10;20.70;71.80
10089;DHT22;51898;49.864;8.550;2023-08-01T17:03:12;20.60;73.50
10089;DHT22;51898;49.864;8.550;2023-08-01T17:06:14;20.50;72.40
10089;DHT22;51898;49.864;8.550;2023-08-01T17:09:16;20.40;72.30
10089;DHT22;51898;49.864;8.550;2023-08-01T17:12:18;20.20;71.80
10089;DHT22;51898;49.864;8.550;2023-08-01T17:15:19;20.20;72.10
10089;DHT22;51898;49.864;8.550;2023-08-01T17:18:21;20.10;72.60
10089;DHT22;51898;49.864;8.550;2023-08-01T17:21:23;19.90;73.50
10089;DHT22;51898;49.864;8.550;2023-08-01T17:24:24;20.00;74.00
10089;DHT22;51898;49.864;8.550;2023-08-01T17:27:26;19.90;71.60
10089;DHT22;51898;49.864;8.550;2023-08-01T17:30:28;19.80;71.70
10089;DHT22;51898;49.864;8.550;2023-08-01T17:33:30;19.70;71.10
10089;DHT22;51898;49.864;8.550;2023-08-01T17:36:33;19.50;70.10
10089;DHT22;51898;49.864;8.550;2023-08-01T17:39:34;19.20;71.50
10089;DHT22;51898;49.864;8.550;2023-08-01T17:42:36;19.10;71.60
10089;DHT22;51898;49.864;8.550;2023-08-01T17:45:38;19.00;71.80
10089;DHT22;51898;49.864;8.550;2023-08-01T17:48:41;18.90;72.30
10089;DHT22;51898;49.864;8.550;2023-08-01T17:51:43;18.80;72.90
10089;DHT22;51898;49.864;8.550;2023-08-01T17:54:45;18.70;73.80
10089;DHT22;51898;49.864;8.550;2023-08-01T17:57:47;18.70;73.90
10089;DHT22;51898;49.864;8.550;2023-08-01T18:00:48;18.70;74.60
10089;DHT22;51898;49.864;8.550;2023-08-01T18:03:51;18.80;74.00
10089;DHT22;51898;49.864;8.550;2023-08-01T18:06:52;19.00;73.90
10089;DHT22;51898;49.864;8.550;2023-08-01T18:09:54;19.10;74.40
10089;DHT22;51898;49.864;8.550;2023-08-01T18:12:57;19.20;74.70
10089;DHT22;51898;49.864;8.550;2023-08-01T18:15:59;19.70;73.40
10089;DHT22;51898;49.864;8.550;2023-08-01T18:19:01;20.20;71.30
10089;DHT22;51898;49.864;8.550;2023-08-01T18:22:03;20.60;70.50
10089;DHT22;51898;49.864;8.550;2023-08-01T18:25:06;20.70;70.20
10089;DHT22;51898;49.864;8.550;2023-08-01T18:28:07;20.50;69.90
10089;DHT22;51898;49.864;8.550;2023-08-01T18:31:10;20.30;71.20
10089;DHT22;51898;49.864;8.550;2023-08-01T18:34:12;20.20;71.70
10089;DHT22;51898;49.864;8.550;2023-08-01T18:37:14;20.00;72.60
10089;DHT22;51898;49.864;8.550;2023-08-01T18:40:15;19.80;72.70
10089;DHT22;51898;49.864;8.550;2023-08-01T18:43:20;19.60;73.20
10089;DHT22;51898;49.864;8.550;2023-08-01T18:46:22;19.30;74.50
10089;DHT22;51898;49.864;8.550;2023-08-01T18:49:25;19.10;75.70
10089;DHT22;51898;49.864;8.550;2023-08-01T18:52:29;18.90;76.80
10089;DHT22;51898;49.864;8.550;2023-08-01T18:55:33;18.70;77.80
10089;DHT22;51898;49.864;8.550;2023-08-01T18:58:36;18.50;78.00
10089;DHT22;51898;49.864;8.550;2023-08-01T19:01:37;18.40;78.40
10089;DHT22;51898;49.864;8.550;2023-08-01T19:04:39;18.20;79.10
10089;DHT22;51898;49.864;8.550;2023-08-01T19:07:41;18.10;79.90
10089;DHT22;51898;49.864;8.550;2023-08-01T19:10:45;18.00;80.40